KMMU/MMU METAR and TAF weather

Enter ICAO airport designator
Station Type Date Time Source
KMMU METAR 2020/04/10 18:45 UTC NOAA

KMMU 101845Z 33022G38KT 10SM SCT046 BKN060 07/M02 A2946


Station Type Date Time Source
KMMU Decoded METAR 2020/04/10 18:45 UTC NOAA

Morristown Municipal, NJ, United States (KMMU) 40-48N 074-25W
Apr 10, 2020 - 02:45 PM EDT / 2020.04.10 1845 UTC
Wind: from the NNW (330 degrees) at 25 MPH (22 KT) gusting to 44 MPH (38 KT):0
Visibility: 10 mile(s):0
Sky conditions: mostly cloudy
Temperature: 44 F (7 C)
Dew Point: 28 F (-2 C)
Relative Humidity: 52%
Pressure (altimeter): 29.46 in. Hg (997 hPa)
ob: KMMU 101845Z 33022G38KT 10SM SCT046 BKN060 07/M02 A2946
cycle: 19

Station Type Date Time Source
KMMU TAF UTC NOAA

Error!

Example: see airport list